sensor_id;sensor_type;location;lat;lon;timestamp;temperature;humidity
20158;DHT22;10239;56.820;24.416;2023-08-06T00:00:41;20.50;99.90
20158;DHT22;10239;56.820;24.416;2023-08-06T00:03:09;20.40;99.90
20158;DHT22;10239;56.820;24.416;2023-08-06T00:05:37;20.30;99.90
20158;DHT22;10239;56.820;24.416;2023-08-06T00:08:10;20.30;99.90
20158;DHT22;10239;56.820;24.416;2023-08-06T00:10:39;20.30;99.90
20158;DHT22;10239;56.820;24.416;2023-08-06T00:13:08;20.30;99.90
20158;DHT22;10239;56.820;24.416;2023-08-06T00:15:36;20.40;99.90
20158;DHT22;10239;56.820;24.416;2023-08-06T00:18:04;20.40;99.90
20158;DHT22;10239;56.820;24.416;2023-08-06T00:20:31;20.40;99.90
20158;DHT22;10239;56.820;24.416;2023-08-06T00:22:59;20.50;99.90
20158;DHT22;10239;56.820;24.416;2023-08-06T00:25:44;20.50;99.90
20158;DHT22;10239;56.820;24.416;2023-08-06T00:28:11;20.50;99.90
20158;DHT22;10239;56.820;24.416;2023-08-06T00:30:39;20.60;99.90
20158;DHT22;10239;56.820;24.416;2023-08-06T00:33:06;20.60;99.90
20158;DHT22;10239;56.820;24.416;2023-08-06T00:35:34;20.50;99.90
20158;DHT22;10239;56.820;24.416;2023-08-06T00:38:02;20.40;99.90
20158;DHT22;10239;56.820;24.416;2023-08-06T00:40:29;20.50;99.90
20158;DHT22;10239;56.820;24.416;2023-08-06T00:42:57;20.50;99.90
20158;DHT22;10239;56.820;24.416;2023-08-06T00:45:26;20.40;99.90
20158;DHT22;10239;56.820;24.416;2023-08-06T00:47:55;20.50;99.90
20158;DHT22;10239;56.820;24.416;2023-08-06T00:50:23;20.50;99.90
20158;DHT22;10239;56.820;24.416;2023-08-06T00:52:51;20.60;99.90
20158;DHT22;10239;56.820;24.416;2023-08-06T00:55:19;20.50;99.90
20158;DHT22;10239;56.820;24.416;2023-08-06T00:57:47;20.50;99.90
20158;DHT22;10239;56.820;24.416;2023-08-06T01:00:15;20.50;99.90
20158;DHT22;10239;56.820;24.416;2023-08-06T01:02:43;20.40;99.90
20158;DHT22;10239;56.820;24.416;2023-08-06T01:05:11;20.50;99.90
20158;DHT22;10239;56.820;24.416;2023-08-06T01:10:47;20.20;99.90
20158;DHT22;10239;56.820;24.416;2023-08-06T01:15:55;20.20;99.90
20158;DHT22;10239;56.820;24.416;2023-08-06T01:18:27;20.10;99.90
20158;DHT22;10239;56.820;24.416;2023-08-06T01:20:54;20.10;99.90
20158;DHT22;10239;56.820;24.416;2023-08-06T01:23:23;20.10;99.90
20158;DHT22;10239;56.820;24.416;2023-08-06T01:28:48;20.10;99.90
20158;DHT22;10239;56.820;24.416;2023-08-06T01:31:22;20.10;99.90
20158;DHT22;10239;56.820;24.416;2023-08-06T01:33:53;20.10;99.90
20158;DHT22;10239;56.820;24.416;2023-08-06T01:36:22;20.10;99.90
20158;DHT22;10239;56.820;24.416;2023-08-06T01:38:52;20.00;99.90
20158;DHT22;10239;56.820;24.416;2023-08-06T01:41:20;20.10;99.90
20158;DHT22;10239;56.820;24.416;2023-08-06T01:43:47;20.00;99.90
20158;DHT22;10239;56.820;24.416;2023-08-06T01:46:15;20.20;99.90
20158;DHT22;10239;56.820;24.416;2023-08-06T01:48:43;20.30;99.90
20158;DHT22;10239;56.820;24.416;2023-08-06T01:51:10;20.40;99.90
20158;DHT22;10239;56.820;24.416;2023-08-06T01:53:38;20.50;99.90
20158;DHT22;10239;56.820;24.416;2023-08-06T01:56:06;20.50;99.90
20158;DHT22;10239;56.820;24.416;2023-08-06T01:58:34;20.60;99.90
20158;DHT22;10239;56.820;24.416;2023-08-06T02:01:02;20.60;99.90
20158;DHT22;10239;56.820;24.416;2023-08-06T02:03:30;20.50;99.90
20158;DHT22;10239;56.820;24.416;2023-08-06T02:05:58;20.50;99.90
20158;DHT22;10239;56.820;24.416;2023-08-06T02:08:27;20.50;99.90
20158;DHT22;10239;56.820;24.416;2023-08-06T02:10:55;20.60;99.90
20158;DHT22;10239;56.820;24.416;2023-08-06T02:13:22;20.60;99.90
20158;DHT22;10239;56.820;24.416;2023-08-06T02:15:49;20.60;99.90
20158;DHT22;10239;56.820;24.416;2023-08-06T02:18:17;20.70;99.90
20158;DHT22;10239;56.820;24.416;2023-08-06T02:20:56;20.70;99.90
20158;DHT22;10239;56.820;24.416;2023-08-06T02:23:25;20.70;99.90
20158;DHT22;10239;56.820;24.416;2023-08-06T02:26:00;20.80;99.90
20158;DHT22;10239;56.820;24.416;2023-08-06T02:28:29;20.90;99.90
20158;DHT22;10239;56.820;24.416;2023-08-06T02:30:57;20.90;99.90
20158;DHT22;10239;56.820;24.416;2023-08-06T02:33:24;20.90;99.90
20158;DHT22;10239;56.820;24.416;2023-08-06T02:36:01;20.90;99.90
20158;DHT22;10239;56.820;24.416;2023-08-06T02:38:29;20.90;99.90
20158;DHT22;10239;56.820;24.416;2023-08-06T02:40:56;20.90;99.90
20158;DHT22;10239;56.820;24.416;2023-08-06T02:43:24;20.90;99.90
20158;DHT22;10239;56.820;24.416;2023-08-06T02:45:52;20.90;99.90
20158;DHT22;10239;56.820;24.416;2023-08-06T02:48:20;20.80;99.90
20158;DHT22;10239;56.820;24.416;2023-08-06T02:50:47;20.80;99.90
20158;DHT22;10239;56.820;24.416;2023-08-06T02:53:15;20.80;99.90
20158;DHT22;10239;56.820;24.416;2023-08-06T02:55:48;20.80;99.90
20158;DHT22;10239;56.820;24.416;2023-08-06T02:58:19;20.80;99.90
20158;DHT22;10239;56.820;24.416;2023-08-06T03:01:06;20.80;99.90
20158;DHT22;10239;56.820;24.416;2023-08-06T03:03:53;20.80;99.90
20158;DHT22;10239;56.820;24.416;2023-08-06T03:06:27;20.70;99.90
20158;DHT22;10239;56.820;24.416;2023-08-06T03:08:57;20.70;99.90
20158;DHT22;10239;56.820;24.416;2023-08-06T03:11:25;20.80;99.90
20158;DHT22;10239;56.820;24.416;2023-08-06T03:13:57;20.80;99.90
20158;DHT22;10239;56.820;24.416;2023-08-06T03:16:26;20.80;99.90
20158;DHT22;10239;56.820;24.416;2023-08-06T03:18:54;20.90;99.90
20158;DHT22;10239;56.820;24.416;2023-08-06T03:21:21;20.90;99.90
20158;DHT22;10239;56.820;24.416;2023-08-06T03:23:49;20.90;99.90
20158;DHT22;10239;56.820;24.416;2023-08-06T03:26:21;21.00;99.90
20158;DHT22;10239;56.820;24.416;2023-08-06T03:28:48;21.00;99.90
20158;DHT22;10239;56.820;24.416;2023-08-06T03:31:17;20.90;99.90
20158;DHT22;10239;56.820;24.416;2023-08-06T03:33:45;21.00;99.90
20158;DHT22;10239;56.820;24.416;2023-08-06T03:36:16;21.00;99.90
20158;DHT22;10239;56.820;24.416;2023-08-06T03:38:43;21.00;99.90
20158;DHT22;10239;56.820;24.416;2023-08-06T03:41:13;21.00;99.90
20158;DHT22;10239;56.820;24.416;2023-08-06T03:43:42;21.00;99.90
20158;DHT22;10239;56.820;24.416;2023-08-06T03:46:15;21.00;99.90
20158;DHT22;10239;56.820;24.416;2023-08-06T03:48:43;21.00;99.90
20158;DHT22;10239;56.820;24.416;2023-08-06T03:51:12;21.00;99.90
20158;DHT22;10239;56.820;24.416;2023-08-06T03:53:42;21.00;99.90
20158;DHT22;10239;56.820;24.416;2023-08-06T03:56:10;21.00;99.90
20158;DHT22;10239;56.820;24.416;2023-08-06T03:58:38;21.10;99.90
20158;DHT22;10239;56.820;24.416;2023-08-06T04:01:07;21.20;99.90
20158;DHT22;10239;56.820;24.416;2023-08-06T04:03:44;21.10;99.90
20158;DHT22;10239;56.820;24.416;2023-08-06T04:06:12;21.10;99.90
20158;DHT22;10239;56.820;24.416;2023-08-06T04:08:40;21.20;99.90
20158;DHT22;10239;56.820;24.416;2023-08-06T04:11:07;21.20;99.90
20158;DHT22;10239;56.820;24.416;2023-08-06T04:13:35;21.20;99.90
20158;DHT22;10239;56.820;24.416;2023-08-06T04:16:03;21.30;99.90
20158;DHT22;10239;56.820;24.416;2023-08-06T04:18:32;21.30;99.90
20158;DHT22;10239;56.820;24.416;2023-08-06T04:21:01;21.30;99.90
20158;DHT22;10239;56.820;24.416;2023-08-06T04:23:29;21.40;99.90
20158;DHT22;10239;56.820;24.416;2023-08-06T04:26:01;21.40;99.90
20158;DHT22;10239;56.820;24.416;2023-08-06T04:28:32;21.40;99.90
20158;DHT22;10239;56.820;24.416;2023-08-06T04:31:00;21.50;99.90
20158;DHT22;10239;56.820;24.416;2023-08-06T04:33:30;21.40;99.90
20158;DHT22;10239;56.820;24.416;2023-08-06T04:36:01;21.50;99.90
20158;DHT22;10239;56.820;24.416;2023-08-06T04:38:28;21.60;99.90
20158;DHT22;10239;56.820;24.416;2023-08-06T04:40:58;21.60;99.90
20158;DHT22;10239;56.820;24.416;2023-08-06T04:43:25;21.60;99.90
20158;DHT22;10239;56.820;24.416;2023-08-06T04:45:54;21.70;99.90
20158;DHT22;10239;56.820;24.416;2023-08-06T04:48:23;21.80;99.90
20158;DHT22;10239;56.820;24.416;2023-08-06T04:50:50;21.80;99.90
20158;DHT22;10239;56.820;24.416;2023-08-06T04:53:18;22.00;99.90
20158;DHT22;10239;56.820;24.416;2023-08-06T04:55:45;22.10;99.90
20158;DHT22;10239;56.820;24.416;2023-08-06T04:58:13;22.40;99.90
20158;DHT22;10239;56.820;24.416;2023-08-06T05:00:41;22.60;99.90
20158;DHT22;10239;56.820;24.416;2023-08-06T05:03:09;22.80;99.90
20158;DHT22;10239;56.820;24.416;2023-08-06T05:05:37;23.00;99.90
20158;DHT22;10239;56.820;24.416;2023-08-06T05:08:06;23.00;99.90
20158;DHT22;10239;56.820;24.416;2023-08-06T05:10:34;23.10;99.90
20158;DHT22;10239;56.820;24.416;2023-08-06T05:13:02;23.10;99.90
20158;DHT22;10239;56.820;24.416;2023-08-06T05:15:29;23.20;99.90
20158;DHT22;10239;56.820;24.416;2023-08-06T05:17:57;23.30;99.90
20158;DHT22;10239;56.820;24.416;2023-08-06T05:20:25;23.60;99.90
20158;DHT22;10239;56.820;24.416;2023-08-06T05:22:53;23.70;99.90
20158;DHT22;10239;56.820;24.416;2023-08-06T05:25:23;23.60;99.90
20158;DHT22;10239;56.820;24.416;2023-08-06T05:27:51;23.70;99.90
20158;DHT22;10239;56.820;24.416;2023-08-06T05:30:18;23.70;99.90
20158;DHT22;10239;56.820;24.416;2023-08-06T05:32:46;23.60;99.90
20158;DHT22;10239;56.820;24.416;2023-08-06T05:35:14;23.50;99.90
20158;DHT22;10239;56.820;24.416;2023-08-06T05:37:41;23.50;99.90
20158;DHT22;10239;56.820;24.416;2023-08-06T05:40:14;23.50;99.90
20158;DHT22;10239;56.820;24.416;2023-08-06T05:42:42;23.40;99.90
20158;DHT22;10239;56.820;24.416;2023-08-06T05:45:09;23.40;99.90
20158;DHT22;10239;56.820;24.416;2023-08-06T05:47:37;23.50;99.90
20158;DHT22;10239;56.820;24.416;2023-08-06T05:50:05;23.70;99.90
20158;DHT22;10239;56.820;24.416;2023-08-06T05:52:33;23.60;99.90
20158;DHT22;10239;56.820;24.416;2023-08-06T05:55:01;23.70;99.90
20158;DHT22;10239;56.820;24.416;2023-08-06T05:57:28;23.90;99.90
20158;DHT22;10239;56.820;24.416;2023-08-06T05:59:56;23.80;99.90
20158;DHT22;10239;56.820;24.416;2023-08-06T06:02:24;24.10;99.90
20158;DHT22;10239;56.820;24.416;2023-08-06T06:04:54;23.70;99.90
20158;DHT22;10239;56.820;24.416;2023-08-06T06:07:22;24.10;99.90
20158;DHT22;10239;56.820;24.416;2023-08-06T06:09:50;24.20;99.90
20158;DHT22;10239;56.820;24.416;2023-08-06T06:12:17;24.40;99.90
20158;DHT22;10239;56.820;24.416;2023-08-06T06:14:45;24.20;99.90
20158;DHT22;10239;56.820;24.416;2023-08-06T06:17:13;24.40;99.90
20158;DHT22;10239;56.820;24.416;2023-08-06T06:19:40;24.40;99.90
20158;DHT22;10239;56.820;24.416;2023-08-06T06:22:08;24.50;99.90
20158;DHT22;10239;56.820;24.416;2023-08-06T06:24:36;24.40;99.90
20158;DHT22;10239;56.820;24.416;2023-08-06T06:27:04;24.50;99.90
20158;DHT22;10239;56.820;24.416;2023-08-06T06:29:32;24.70;99.90
20158;DHT22;10239;56.820;24.416;2023-08-06T06:31:59;25.30;99.90
20158;DHT22;10239;56.820;24.416;2023-08-06T06:34:27;25.40;99.90
20158;DHT22;10239;56.820;24.416;2023-08-06T06:36:55;25.50;99.90
20158;DHT22;10239;56.820;24.416;2023-08-06T06:39:22;25.50;99.90
20158;DHT22;10239;56.820;24.416;2023-08-06T06:41:50;25.70;99.90
20158;DHT22;10239;56.820;24.416;2023-08-06T06:44:24;25.60;99.90
20158;DHT22;10239;56.820;24.416;2023-08-06T06:46:52;25.90;99.90
20158;DHT22;10239;56.820;24.416;2023-08-06T06:49:19;26.00;99.90
20158;DHT22;10239;56.820;24.416;2023-08-06T06:51:47;26.00;99.90
20158;DHT22;10239;56.820;24.416;2023-08-06T06:54:15;26.70;99.90
20158;DHT22;10239;56.820;24.416;2023-08-06T06:56:42;27.60;99.90
20158;DHT22;10239;56.820;24.416;2023-08-06T06:59:10;28.30;99.90
20158;DHT22;10239;56.820;24.416;2023-08-06T07:01:38;28.50;99.90
20158;DHT22;10239;56.820;24.416;2023-08-06T07:04:05;28.60;99.90
20158;DHT22;10239;56.820;24.416;2023-08-06T07:06:33;28.90;99.90
20158;DHT22;10239;56.820;24.416;2023-08-06T07:09:01;29.80;99.90
20158;DHT22;10239;56.820;24.416;2023-08-06T07:11:28;31.00;99.90
20158;DHT22;10239;56.820;24.416;2023-08-06T07:13:57;31.70;99.90
20158;DHT22;10239;56.820;24.416;2023-08-06T07:16:28;31.90;99.90
20158;DHT22;10239;56.820;24.416;2023-08-06T07:18:56;31.90;99.90
20158;DHT22;10239;56.820;24.416;2023-08-06T07:21:24;31.70;99.90
20158;DHT22;10239;56.820;24.416;2023-08-06T07:23:52;32.50;99.90
20158;DHT22;10239;56.820;24.416;2023-08-06T07:26:19;32.40;99.90
20158;DHT22;10239;56.820;24.416;2023-08-06T07:28:47;32.80;99.90
20158;DHT22;10239;56.820;24.416;2023-08-06T07:31:15;32.70;99.90
20158;DHT22;10239;56.820;24.416;2023-08-06T07:33:42;32.80;99.90
20158;DHT22;10239;56.820;24.416;2023-08-06T07:36:14;32.90;99.90
20158;DHT22;10239;56.820;24.416;2023-08-06T07:38:42;32.90;99.90
20158;DHT22;10239;56.820;24.416;2023-08-06T07:41:10;33.20;99.90
20158;DHT22;10239;56.820;24.416;2023-08-06T07:43:37;33.40;99.90
20158;DHT22;10239;56.820;24.416;2023-08-06T07:46:05;32.90;99.90
20158;DHT22;10239;56.820;24.416;2023-08-06T07:48:33;33.40;99.90
20158;DHT22;10239;56.820;24.416;2023-08-06T07:51:00;33.10;99.90
20158;DHT22;10239;56.820;24.416;2023-08-06T07:53:28;32.90;99.90
20158;DHT22;10239;56.820;24.416;2023-08-06T07:55:59;33.40;99.90
20158;DHT22;10239;56.820;24.416;2023-08-06T07:58:29;34.20;99.90
20158;DHT22;10239;56.820;24.416;2023-08-06T08:00:57;34.60;99.90
20158;DHT22;10239;56.820;24.416;2023-08-06T08:03:24;34.60;99.90
20158;DHT22;10239;56.820;24.416;2023-08-06T08:05:55;35.30;99.90
20158;DHT22;10239;56.820;24.416;2023-08-06T08:08:26;35.10;99.90
20158;DHT22;10239;56.820;24.416;2023-08-06T08:10:54;35.50;99.90
20158;DHT22;10239;56.820;24.416;2023-08-06T08:13:22;35.00;99.90
20158;DHT22;10239;56.820;24.416;2023-08-06T08:15:59;35.80;99.90
20158;DHT22;10239;56.820;24.416;2023-08-06T08:18:27;35.50;99.90
20158;DHT22;10239;56.820;24.416;2023-08-06T08:20:55;36.10;99.90
20158;DHT22;10239;56.820;24.416;2023-08-06T08:23:23;35.60;99.90
20158;DHT22;10239;56.820;24.416;2023-08-06T08:25:51;36.80;99.90
20158;DHT22;10239;56.820;24.416;2023-08-06T08:28:19;37.10;99.90
20158;DHT22;10239;56.820;24.416;2023-08-06T08:30:46;37.20;99.90
20158;DHT22;10239;56.820;24.416;2023-08-06T08:33:14;37.20;99.90
20158;DHT22;10239;56.820;24.416;2023-08-06T08:35:42;36.50;99.90
20158;DHT22;10239;56.820;24.416;2023-08-06T08:38:09;35.90;99.90
20158;DHT22;10239;56.820;24.416;2023-08-06T08:40:47;36.60;99.90
20158;DHT22;10239;56.820;24.416;2023-08-06T08:43:21;36.10;99.90
20158;DHT22;10239;56.820;24.416;2023-08-06T08:45:51;36.30;99.90
20158;DHT22;10239;56.820;24.416;2023-08-06T08:48:19;35.90;99.90
20158;DHT22;10239;56.820;24.416;2023-08-06T08:50:49;36.60;99.90
20158;DHT22;10239;56.820;24.416;2023-08-06T08:53:17;36.10;99.90
20158;DHT22;10239;56.820;24.416;2023-08-06T08:55:48;36.20;99.90
20158;DHT22;10239;56.820;24.416;2023-08-06T08:58:20;36.30;99.90
20158;DHT22;10239;56.820;24.416;2023-08-06T09:00:48;36.50;99.90
20158;DHT22;10239;56.820;24.416;2023-08-06T09:03:17;36.40;99.90
20158;DHT22;10239;56.820;24.416;2023-08-06T09:05:49;36.70;99.90
20158;DHT22;10239;56.820;24.416;2023-08-06T09:08:20;36.40;99.90
20158;DHT22;10239;56.820;24.416;2023-08-06T09:10:49;36.80;99.90
20158;DHT22;10239;56.820;24.416;2023-08-06T09:13:17;36.60;99.90
20158;DHT22;10239;56.820;24.416;2023-08-06T09:15:44;36.00;99.90
20158;DHT22;10239;56.820;24.416;2023-08-06T09:18:12;36.30;99.90
20158;DHT22;10239;56.820;24.416;2023-08-06T09:20:40;36.20;99.90
20158;DHT22;10239;56.820;24.416;2023-08-06T09:23:09;36.30;99.90
20158;DHT22;10239;56.820;24.416;2023-08-06T09:25:38;36.50;99.90
20158;DHT22;10239;56.820;24.416;2023-08-06T09:28:07;36.00;99.90
20158;DHT22;10239;56.820;24.416;2023-08-06T09:30:38;36.30;99.90
20158;DHT22;10239;56.820;24.416;2023-08-06T09:33:09;36.70;99.90
20158;DHT22;10239;56.820;24.416;2023-08-06T09:35:43;37.30;99.90
20158;DHT22;10239;56.820;24.416;2023-08-06T09:38:10;37.30;99.90
20158;DHT22;10239;56.820;24.416;2023-08-06T09:40:39;36.90;99.90
20158;DHT22;10239;56.820;24.416;2023-08-06T09:43:07;37.00;99.90
20158;DHT22;10239;56.820;24.416;2023-08-06T09:45:37;37.00;99.90
20158;DHT22;10239;56.820;24.416;2023-08-06T09:48:07;37.40;99.90
20158;DHT22;10239;56.820;24.416;2023-08-06T09:50:37;37.40;99.90
20158;DHT22;10239;56.820;24.416;2023-08-06T09:53:06;37.30;99.90
20158;DHT22;10239;56.820;24.416;2023-08-06T09:55:36;37.30;99.90
20158;DHT22;10239;56.820;24.416;2023-08-06T09:58:04;36.70;99.90
20158;DHT22;10239;56.820;24.416;2023-08-06T10:00:33;36.90;99.90
20158;DHT22;10239;56.820;24.416;2023-08-06T10:03:06;37.10;99.90
20158;DHT22;10239;56.820;24.416;2023-08-06T10:05:36;36.80;99.90
20158;DHT22;10239;56.820;24.416;2023-08-06T10:08:05;36.20;99.90
20158;DHT22;10239;56.820;24.416;2023-08-06T10:10:34;36.60;99.90
20158;DHT22;10239;56.820;24.416;2023-08-06T10:13:03;36.60;99.90
20158;DHT22;10239;56.820;24.416;2023-08-06T10:15:33;36.20;99.90
20158;DHT22;10239;56.820;24.416;2023-08-06T10:18:01;36.60;99.90
20158;DHT22;10239;56.820;24.416;2023-08-06T10:20:34;36.20;99.90
20158;DHT22;10239;56.820;24.416;2023-08-06T10:23:02;36.50;99.90
20158;DHT22;10239;56.820;24.416;2023-08-06T10:25:34;36.20;99.90
20158;DHT22;10239;56.820;24.416;2023-08-06T10:28:10;36.00;99.90
20158;DHT22;10239;56.820;24.416;2023-08-06T10:30:43;35.60;99.90
20158;DHT22;10239;56.820;24.416;2023-08-06T10:33:11;36.00;99.90
20158;DHT22;10239;56.820;24.416;2023-08-06T10:35:46;35.50;99.90
20158;DHT22;10239;56.820;24.416;2023-08-06T10:38:22;35.90;99.90
20158;DHT22;10239;56.820;24.416;2023-08-06T10:41:00;35.00;99.90
20158;DHT22;10239;56.820;24.416;2023-08-06T10:43:30;35.30;99.90
20158;DHT22;10239;56.820;24.416;2023-08-06T10:46:00;35.40;99.90
20158;DHT22;10239;56.820;24.416;2023-08-06T10:48:39;35.40;99.90
20158;DHT22;10239;56.820;24.416;2023-08-06T10:51:12;34.90;99.90
20158;DHT22;10239;56.820;24.416;2023-08-06T10:53:47;34.70;99.90
20158;DHT22;10239;56.820;24.416;2023-08-06T10:56:20;34.70;99.90
20158;DHT22;10239;56.820;24.416;2023-08-06T10:58:53;34.90;99.90
20158;DHT22;10239;56.820;24.416;2023-08-06T11:01:22;34.90;99.90
20158;DHT22;10239;56.820;24.416;2023-08-06T11:03:50;33.70;99.90
20158;DHT22;10239;56.820;24.416;2023-08-06T11:06:21;33.90;99.90
20158;DHT22;10239;56.820;24.416;2023-08-06T11:08:52;33.80;99.90
20158;DHT22;10239;56.820;24.416;2023-08-06T11:11:22;34.30;99.90
20158;DHT22;10239;56.820;24.416;2023-08-06T11:13:51;34.40;99.90
20158;DHT22;10239;56.820;24.416;2023-08-06T11:16:21;34.40;99.90
20158;DHT22;10239;56.820;24.416;2023-08-06T11:18:51;34.00;99.90
20158;DHT22;10239;56.820;24.416;2023-08-06T11:21:21;34.00;99.90
20158;DHT22;10239;56.820;24.416;2023-08-06T11:23:48;34.20;99.90
20158;DHT22;10239;56.820;24.416;2023-08-06T11:26:20;34.10;99.90
20158;DHT22;10239;56.820;24.416;2023-08-06T11:28:48;34.50;99.90
20158;DHT22;10239;56.820;24.416;2023-08-06T11:31:23;34.40;99.90
20158;DHT22;10239;56.820;24.416;2023-08-06T11:33:52;34.60;99.90
20158;DHT22;10239;56.820;24.416;2023-08-06T11:36:33;34.90;99.90
20158;DHT22;10239;56.820;24.416;2023-08-06T11:39:02;35.10;99.90
20158;DHT22;10239;56.820;24.416;2023-08-06T11:41:30;34.80;99.90
20158;DHT22;10239;56.820;24.416;2023-08-06T11:44:00;34.40;99.90
20158;DHT22;10239;56.820;24.416;2023-08-06T11:46:28;34.30;99.90
20158;DHT22;10239;56.820;24.416;2023-08-06T11:48:57;34.40;99.90
20158;DHT22;10239;56.820;24.416;2023-08-06T11:51:26;33.90;99.90
20158;DHT22;10239;56.820;24.416;2023-08-06T11:53:57;34.20;99.90
20158;DHT22;10239;56.820;24.416;2023-08-06T11:56:26;34.00;99.90
20158;DHT22;10239;56.820;24.416;2023-08-06T11:58:55;33.80;99.90
20158;DHT22;10239;56.820;24.416;2023-08-06T12:01:23;33.10;99.90
20158;DHT22;10239;56.820;24.416;2023-08-06T12:03:50;33.50;99.90
20158;DHT22;10239;56.820;24.416;2023-08-06T12:06:18;33.20;99.90
20158;DHT22;10239;56.820;24.416;2023-08-06T12:08:46;33.10;99.90
20158;DHT22;10239;56.820;24.416;2023-08-06T12:11:13;32.60;99.90
20158;DHT22;10239;56.820;24.416;2023-08-06T12:13:41;33.10;99.90
20158;DHT22;10239;56.820;24.416;2023-08-06T12:16:09;33.10;99.90
20158;DHT22;10239;56.820;24.416;2023-08-06T12:18:36;33.10;99.90
20158;DHT22;10239;56.820;24.416;2023-08-06T12:21:04;33.50;99.90
20158;DHT22;10239;56.820;24.416;2023-08-06T12:23:31;33.50;99.90
20158;DHT22;10239;56.820;24.416;2023-08-06T12:26:00;33.30;99.90
20158;DHT22;10239;56.820;24.416;2023-08-06T12:28:27;33.10;99.90
20158;DHT22;10239;56.820;24.416;2023-08-06T12:30:55;33.00;99.90
20158;DHT22;10239;56.820;24.416;2023-08-06T12:33:22;32.90;99.90
20158;DHT22;10239;56.820;24.416;2023-08-06T12:35:50;33.50;99.90
20158;DHT22;10239;56.820;24.416;2023-08-06T12:38:17;33.50;99.90
20158;DHT22;10239;56.820;24.416;2023-08-06T12:40:44;33.50;99.90
20158;DHT22;10239;56.820;24.416;2023-08-06T12:43:12;34.00;99.90
20158;DHT22;10239;56.820;24.416;2023-08-06T12:45:39;34.20;99.90
20158;DHT22;10239;56.820;24.416;2023-08-06T12:48:07;34.10;99.90
20158;DHT22;10239;56.820;24.416;2023-08-06T12:50:35;33.70;99.90
20158;DHT22;10239;56.820;24.416;2023-08-06T12:53:02;33.40;99.90
20158;DHT22;10239;56.820;24.416;2023-08-06T12:55:32;33.20;99.90
20158;DHT22;10239;56.820;24.416;2023-08-06T12:57:59;33.40;99.90
20158;DHT22;10239;56.820;24.416;2023-08-06T13:00:27;33.40;99.90
20158;DHT22;10239;56.820;24.416;2023-08-06T13:02:56;33.80;99.90
20158;DHT22;10239;56.820;24.416;2023-08-06T13:05:23;34.00;99.90
20158;DHT22;10239;56.820;24.416;2023-08-06T13:07:51;34.10;99.90
20158;DHT22;10239;56.820;24.416;2023-08-06T13:10:19;34.10;99.90
20158;DHT22;10239;56.820;24.416;2023-08-06T13:12:48;33.70;99.90
20158;DHT22;10239;56.820;24.416;2023-08-06T13:15:15;33.80;99.90
20158;DHT22;10239;56.820;24.416;2023-08-06T13:17:44;33.70;99.90
20158;DHT22;10239;56.820;24.416;2023-08-06T13:20:12;33.90;99.90
20158;DHT22;10239;56.820;24.416;2023-08-06T13:22:40;34.00;99.90
20158;DHT22;10239;56.820;24.416;2023-08-06T13:25:07;33.80;99.90
20158;DHT22;10239;56.820;24.416;2023-08-06T13:27:35;33.60;99.90
20158;DHT22;10239;56.820;24.416;2023-08-06T13:30:02;33.40;99.90
20158;DHT22;10239;56.820;24.416;2023-08-06T13:32:30;33.40;99.90
20158;DHT22;10239;56.820;24.416;2023-08-06T13:34:59;33.70;99.90
20158;DHT22;10239;56.820;24.416;2023-08-06T13:37:27;33.50;99.90
20158;DHT22;10239;56.820;24.416;2023-08-06T13:39:55;33.40;99.90
20158;DHT22;10239;56.820;24.416;2023-08-06T13:42:23;33.40;99.90
20158;DHT22;10239;56.820;24.416;2023-08-06T13:44:50;33.30;99.90
20158;DHT22;10239;56.820;24.416;2023-08-06T13:47:17;33.10;99.90
20158;DHT22;10239;56.820;24.416;2023-08-06T13:49:45;33.30;99.90
20158;DHT22;10239;56.820;24.416;2023-08-06T13:52:31;33.00;99.90
20158;DHT22;10239;56.820;24.416;2023-08-06T13:54:59;33.00;99.90
20158;DHT22;10239;56.820;24.416;2023-08-06T13:57:26;33.10;99.90
20158;DHT22;10239;56.820;24.416;2023-08-06T13:59:54;33.30;99.90
20158;DHT22;10239;56.820;24.416;2023-08-06T14:02:22;33.40;99.90
20158;DHT22;10239;56.820;24.416;2023-08-06T14:04:52;33.50;99.90
20158;DHT22;10239;56.820;24.416;2023-08-06T14:07:20;33.60;99.90
20158;DHT22;10239;56.820;24.416;2023-08-06T14:09:47;33.50;99.90
20158;DHT22;10239;56.820;24.416;2023-08-06T14:12:16;33.40;99.90
20158;DHT22;10239;56.820;24.416;2023-08-06T14:14:44;33.20;99.90
20158;DHT22;10239;56.820;24.416;2023-08-06T14:17:11;33.20;99.90
20158;DHT22;10239;56.820;24.416;2023-08-06T14:19:39;33.40;99.90
20158;DHT22;10239;56.820;24.416;2023-08-06T14:22:06;33.40;99.90
20158;DHT22;10239;56.820;24.416;2023-08-06T14:24:34;33.20;99.90
20158;DHT22;10239;56.820;24.416;2023-08-06T14:27:01;33.00;99.90
20158;DHT22;10239;56.820;24.416;2023-08-06T14:29:30;33.10;99.90
20158;DHT22;10239;56.820;24.416;2023-08-06T14:31:58;33.20;99.90
20158;DHT22;10239;56.820;24.416;2023-08-06T14:34:25;33.20;99.90
20158;DHT22;10239;56.820;24.416;2023-08-06T14:36:53;33.30;99.90
20158;DHT22;10239;56.820;24.416;2023-08-06T14:39:30;33.30;99.90
20158;DHT22;10239;56.820;24.416;2023-08-06T14:42:01;32.90;99.90
20158;DHT22;10239;56.820;24.416;2023-08-06T14:44:29;32.90;99.90
20158;DHT22;10239;56.820;24.416;2023-08-06T14:46:56;32.70;99.90
20158;DHT22;10239;56.820;24.416;2023-08-06T14:49:24;32.90;99.90
20158;DHT22;10239;56.820;24.416;2023-08-06T14:51:53;32.70;99.90
20158;DHT22;10239;56.820;24.416;2023-08-06T14:54:20;32.70;99.90
20158;DHT22;10239;56.820;24.416;2023-08-06T14:56:48;32.50;99.90
20158;DHT22;10239;56.820;24.416;2023-08-06T14:59:15;32.40;99.90
20158;DHT22;10239;56.820;24.416;2023-08-06T15:01:43;32.60;99.90
20158;DHT22;10239;56.820;24.416;2023-08-06T15:04:10;32.70;99.90
20158;DHT22;10239;56.820;24.416;2023-08-06T15:06:37;32.60;99.90
20158;DHT22;10239;56.820;24.416;2023-08-06T15:09:07;32.30;99.90
20158;DHT22;10239;56.820;24.416;2023-08-06T15:11:34;32.30;99.90
20158;DHT22;10239;56.820;24.416;2023-08-06T15:14:01;32.30;99.90
20158;DHT22;10239;56.820;24.416;2023-08-06T15:16:32;32.40;99.90
20158;DHT22;10239;56.820;24.416;2023-08-06T15:19:01;32.20;99.90
20158;DHT22;10239;56.820;24.416;2023-08-06T15:21:28;32.20;99.90
20158;DHT22;10239;56.820;24.416;2023-08-06T15:23:56;32.30;99.90
20158;DHT22;10239;56.820;24.416;2023-08-06T15:26:23;32.30;99.90
20158;DHT22;10239;56.820;24.416;2023-08-06T15:28:51;32.30;99.90
20158;DHT22;10239;56.820;24.416;2023-08-06T15:31:21;32.30;99.90
20158;DHT22;10239;56.820;24.416;2023-08-06T15:33:49;32.10;99.90